Time;durP1;ratioP1;P1;durP2;ratioP2;P2;SDS_P1;SDS_P2;PMS_P1;PMS_P2;Temp;Humidity;BMP_temperature;BMP_pressure;BME280_temperature;BME280_humidity;BME280_pressure;Samples;Min_cycle;Max_cycle;Signal;HPM_P1;HPM_P2
2022/07/16 00:02:20;;;;;;;0.00;0.00;;;;;;;15.25;70.48;100719.69;5070114;28;20173;-72
2022/07/16 00:04:46;;;;;;;0.10;0.10;;;;;;;15.26;70.68;100713.03;5070433;28;20174;-72
2022/07/16 00:07:12;;;;;;;0.10;0.10;;;;;;;15.27;70.13;100714.66;5069810;28;20178;-71
2022/07/16 00:09:37;;;;;;;0.40;0.33;;;;;;;15.26;70.43;100704.78;5069512;28;20166;-71
2022/07/16 00:12:03;;;;;;;0.00;0.00;;;;;;;15.25;70.39;100708.69;5070123;28;20263;-72
2022/07/16 00:14:28;;;;;;;0.00;0.00;;;;;;;15.27;70.09;100708.34;5071806;28;20166;-72
2022/07/16 00:16:53;;;;;;;0.00;0.00;;;;;;;15.29;69.48;100706.88;5072413;28;20179;-72
2022/07/16 00:19:20;;;;;;;0.00;0.00;;;;;;;15.28;69.86;100716.25;5073635;28;20202;-72
2022/07/16 00:21:48;;;;;;;0.10;0.10;;;;;;;15.27;69.49;100700.09;5073933;28;20252;-72
2022/07/16 00:24:13;;;;;;;0.00;0.00;;;;;;;15.24;69.66;100709.81;5073810;28;20170;-72
2022/07/16 00:26:40;;;;;;;0.13;0.13;;;;;;;15.22;69.86;100695.59;5073526;28;20554;-73
2022/07/16 00:29:05;;;;;;;0.07;0.07;;;;;;;15.17;69.97;100701.28;5073208;28;20179;-73
2022/07/16 00:31:30;;;;;;;0.00;0.00;;;;;;;15.16;69.72;100702.44;5073725;28;20244;-72
2022/07/16 00:33:55;;;;;;;0.00;0.00;;;;;;;15.14;69.67;100693.72;5074161;28;20178;-72
2022/07/16 00:36:21;;;;;;;0.13;0.07;;;;;;;15.08;70.10;100695.88;5073592;28;20192;-73
2022/07/16 00:38:46;;;;;;;0.00;0.00;;;;;;;15.04;70.09;100703.16;5072865;28;20208;-72
2022/07/16 00:41:18;;;;;;;0.10;0.10;;;;;;;15.00;69.91;100699.47;5071866;28;20521;-73
2022/07/16 00:43:47;;;;;;;0.00;0.00;;;;;;;14.98;70.33;100693.50;5073543;28;20179;-71
2022/07/16 00:46:14;;;;;;;0.23;0.23;;;;;;;14.95;70.70;100694.19;5073775;28;20610;-71
2022/07/16 00:48:39;;;;;;;5.57;0.30;;;;;;;14.92;70.99;100697.59;5073105;28;20162;-71
2022/07/16 00:51:06;;;;;;;0.00;0.00;;;;;;;14.92;70.86;100688.56;5073290;28;20217;-72
2022/07/16 00:53:32;;;;;;;0.47;0.47;;;;;;;14.89;71.31;100693.56;5073389;28;20174;-71
2022/07/16 00:55:57;;;;;;;0.00;0.00;;;;;;;14.83;71.94;100688.59;5073444;28;20178;-71
2022/07/16 00:58:22;;;;;;;0.13;0.13;;;;;;;14.72;72.59;100693.66;5072527;28;20182;-71
2022/07/16 01:00:48;;;;;;;0.13;0.13;;;;;;;14.66;72.59;100697.75;5073047;28;20186;-72
2022/07/16 01:03:13;;;;;;;0.30;0.30;;;;;;;14.62;73.25;100690.53;5073123;28;20757;-71
2022/07/16 01:05:39;;;;;;;0.20;0.20;;;;;;;14.59;73.61;100691.97;5073044;28;20181;-71
2022/07/16 01:08:04;;;;;;;0.30;0.30;;;;;;;14.59;73.72;100697.47;5072268;28;20182;-71
2022/07/16 01:10:30;;;;;;;2.47;0.20;;;;;;;14.59;73.49;100695.53;5072980;28;20242;-72
2022/07/16 01:13:00;;;;;;;0.50;0.30;;;;;;;14.57;73.75;100681.31;5071812;28;20273;-72
2022/07/16 01:15:26;;;;;;;2.20;0.30;;;;;;;14.59;73.66;100689.22;5073005;28;20206;-71
2022/07/16 01:17:51;;;;;;;0.20;0.17;;;;;;;14.56;74.01;100692.63;5072586;28;20225;-72
2022/07/16 01:20:16;;;;;;;0.20;0.20;;;;;;;14.52;74.29;100692.50;5072612;28;20174;-71
2022/07/16 01:22:42;;;;;;;0.00;0.00;;;;;;;14.49;74.32;100686.88;5072792;28;20170;-71
2022/07/16 01:25:11;;;;;;;0.13;0.13;;;;;;;14.48;74.47;100691.56;5072258;28;20174;-71
2022/07/16 01:27:38;;;;;;;6.40;0.57;;;;;;;14.49;74.33;100695.13;5072641;28;20166;-72
2022/07/16 01:30:05;;;;;;;0.10;0.10;;;;;;;14.51;74.08;100693.63;5068462;28;20190;-71
2022/07/16 01:32:30;;;;;;;0.20;0.20;;;;;;;14.52;74.13;100681.50;5070301;28;20186;-72
2022/07/16 01:34:56;;;;;;;0.20;0.20;;;;;;;14.55;73.93;100697.34;5072727;28;20177;-71
2022/07/16 01:37:21;;;;;;;0.27;0.27;;;;;;;14.59;73.83;100683.72;5072734;28;20508;-71
2022/07/16 01:39:46;;;;;;;0.10;0.10;;;;;;;14.64;73.91;100688.25;5071466;28;20183;-72
2022/07/16 01:42:12;;;;;;;0.77;0.43;;;;;;;14.67;73.61;100685.63;5072191;28;20182;-72
2022/07/16 01:44:37;;;;;;;0.10;0.10;;;;;;;14.71;73.52;100689.31;5071413;28;20608;-72
2022/07/16 01:47:04;;;;;;;0.23;0.23;;;;;;;14.76;73.29;100683.63;5072503;28;20228;-71
2022/07/16 01:49:38;;;;;;;0.20;0.20;;;;;;;14.80;73.34;100679.06;5072316;28;20190;-71
2022/07/16 01:52:09;;;;;;;0.13;0.13;;;;;;;14.84;73.40;100688.25;5072624;28;20221;-72
2022/07/16 01:54:36;;;;;;;0.37;0.37;;;;;;;14.87;73.24;100673.84;5072636;28;20177;-71
2022/07/16 01:57:01;;;;;;;0.67;0.57;;;;;;;14.90;73.25;100672.38;5071595;28;20186;-72
2022/07/16 01:59:27;;;;;;;0.17;0.17;;;;;;;14.94;73.28;100678.81;5072099;28;20170;-74
2022/07/16 02:01:52;;;;;;;0.50;0.30;;;;;;;14.96;73.80;100672.97;5072909;28;20224;-74
2022/07/16 02:04:17;;;;;;;0.13;0.13;;;;;;;14.96;73.55;100678.47;5072407;28;20537;-74
2022/07/16 02:06:43;;;;;;;0.40;0.10;;;;;;;14.95;74.20;100677.66;5072223;28;20494;-74
2022/07/16 02:09:08;;;;;;;7.53;1.13;;;;;;;14.95;74.09;100671.38;5072149;28;20649;-74
2022/07/16 02:11:33;;;;;;;0.00;0.00;;;;;;;14.95;74.53;100674.94;5072333;28;20209;-71
2022/07/16 02:13:58;;;;;;;0.13;0.13;;;;;;;14.96;74.88;100681.22;5072140;28;20181;-71
2022/07/16 02:16:24;;;;;;;0.33;0.33;;;;;;;14.93;75.26;100677.22;5072128;28;20175;-72
2022/07/16 02:18:49;;;;;;;0.20;0.20;;;;;;;14.93;75.41;100668.16;5071796;28;20197;-71
2022/07/16 02:21:14;;;;;;;0.50;0.50;;;;;;;14.93;75.67;100668.94;5071980;28;20618;-72
2022/07/16 02:23:40;;;;;;;0.10;0.10;;;;;;;14.95;75.66;100665.88;5070285;28;20182;-72
2022/07/16 02:26:05;;;;;;;0.00;0.00;;;;;;;14.96;75.84;100661.97;5071599;28;20540;-74
2022/07/16 02:28:31;;;;;;;0.20;0.20;;;;;;;14.97;75.72;100660.81;5071423;28;20312;-75
2022/07/16 02:30:56;;;;;;;0.10;0.10;;;;;;;15.00;75.99;100660.16;5073748;28;20268;-74
2022/07/16 02:33:22;;;;;;;8.97;0.77;;;;;;;14.99;75.99;100662.09;5072333;28;20178;-74
2022/07/16 02:35:47;;;;;;;0.40;0.40;;;;;;;15.00;75.82;100654.66;5071743;28;20525;-73
2022/07/16 02:38:13;;;;;;;0.70;0.60;;;;;;;15.01;75.57;100656.25;5070792;28;20183;-74
2022/07/16 02:40:40;;;;;;;0.70;0.70;;;;;;;14.98;75.65;100651.44;5071583;28;20259;-75
2022/07/16 02:43:07;;;;;;;0.07;0.07;;;;;;;14.95;75.64;100649.34;5071810;28;20178;-74
2022/07/16 02:45:35;;;;;;;0.20;0.20;;;;;;;14.95;75.92;100652.09;5071602;28;20171;-74
2022/07/16 02:48:00;;;;;;;0.90;0.90;;;;;;;14.93;75.82;100651.63;5071098;28;20183;-74
2022/07/16 02:50:26;;;;;;;0.50;0.47;;;;;;;14.89;75.71;100652.28;5071117;28;20206;-74
2022/07/16 02:52:51;;;;;;;0.37;0.37;;;;;;;14.88;75.99;100647.94;5070022;28;20183;-74
2022/07/16 02:55:17;;;;;;;0.30;0.30;;;;;;;14.88;75.80;100653.44;5071274;28;20202;-73
2022/07/16 02:57:43;;;;;;;1.03;0.93;;;;;;;14.86;75.66;100646.66;5069838;28;20210;-74
2022/07/16 03:00:11;;;;;;;0.20;0.20;;;;;;;14.81;75.92;100639.41;5069800;28;20573;-75
2022/07/16 03:02:37;;;;;;;0.30;0.30;;;;;;;14.77;75.48;100645.94;5069981;28;20267;-73
2022/07/16 03:05:03;;;;;;;1.03;0.60;;;;;;;14.77;75.69;100646.75;5071822;28;20224;-74
2022/07/16 03:07:29;;;;;;;3.20;1.40;;;;;;;14.77;75.65;100637.69;5070942;28;20170;-74
2022/07/16 03:09:54;;;;;;;0.40;0.40;;;;;;;14.78;75.92;100647.53;5070792;28;20181;-74
2022/07/16 03:12:19;;;;;;;4.13;0.83;;;;;;;14.85;75.72;100645.84;5071029;28;20206;-74
2022/07/16 03:14:45;;;;;;;0.30;0.30;;;;;;;14.85;75.95;100636.78;5071042;28;20300;-75
2022/07/16 03:17:12;;;;;;;0.40;0.40;;;;;;;14.85;75.74;100639.53;5070822;28;20706;-75
2022/07/16 03:19:37;;;;;;;0.10;0.10;;;;;;;14.88;75.71;100641.63;5070812;28;20171;-74
2022/07/16 03:22:03;;;;;;;0.80;0.40;;;;;;;14.87;75.48;100640.00;5070592;28;20189;-74
2022/07/16 03:24:28;;;;;;;0.00;0.00;;;;;;;14.88;76.01;100644.38;5070926;28;20174;-74
2022/07/16 03:26:54;;;;;;;0.53;0.53;;;;;;;14.88;76.09;100634.16;5070761;28;20260;-75
2022/07/16 03:29:20;;;;;;;0.63;0.63;;;;;;;14.91;75.93;100631.91;5070697;28;20171;-74
2022/07/16 03:31:45;;;;;;;0.33;0.27;;;;;;;14.91;76.00;100631.91;5070927;28;20563;-74
2022/07/16 03:34:10;;;;;;;0.83;0.63;;;;;;;14.93;76.14;100646.13;5070902;28;20179;-75
2022/07/16 03:36:36;;;;;;;0.40;0.40;;;;;;;14.96;76.15;100638.00;5070638;28;20175;-74
2022/07/16 03:39:04;;;;;;;0.67;0.67;;;;;;;14.98;76.16;100635.72;5070560;28;20178;-72
2022/07/16 03:41:31;;;;;;;1.33;0.33;;;;;;;14.97;75.90;100647.88;5070164;28;20175;-75
2022/07/16 03:43:57;;;;;;;1.20;0.53;;;;;;;14.97;76.49;100656.13;5070841;28;20192;-76
2022/07/16 03:46:23;;;;;;;0.30;0.30;;;;;;;14.92;77.54;100658.28;5070764;28;20179;-76
2022/07/16 03:48:48;;;;;;;0.30;0.20;;;;;;;14.86;78.18;100654.91;5068993;28;20181;-76
2022/07/16 03:51:14;;;;;;;0.90;0.80;;;;;;;14.81;78.39;100652.38;5070466;28;20263;-73
2022/07/16 03:53:39;;;;;;;1.53;1.40;;;;;;;14.82;78.56;100656.72;5070665;28;20171;-74
2022/07/16 03:56:05;;;;;;;1.43;0.80;;;;;;;14.86;78.51;100652.97;5070668;28;20179;-74
2022/07/16 03:58:30;;;;;;;0.83;0.60;;;;;;;14.94;78.46;100653.25;5070346;28;20228;-72
2022/07/16 04:00:56;;;;;;;0.53;0.47;;;;;;;14.98;78.30;100654.97;5070579;28;20178;-74
2022/07/16 04:03:22;;;;;;;0.40;0.40;;;;;;;15.00;78.65;100647.19;5070531;28;20602;-74
2022/07/16 04:05:48;;;;;;;0.80;0.40;;;;;;;15.01;78.67;100643.31;5070500;28;20178;-74
2022/07/16 04:08:13;;;;;;;0.20;0.20;;;;;;;15.03;78.54;100643.75;5070149;28;20587;-75
2022/07/16 04:10:38;;;;;;;1.17;1.00;;;;;;;15.07;78.22;100639.22;5070332;28;20233;-73
2022/07/16 04:13:04;;;;;;;0.50;0.50;;;;;;;15.07;78.22;100644.72;5070586;28;20218;-72
2022/07/16 04:15:29;;;;;;;1.07;1.07;;;;;;;15.07;78.16;100639.22;5070465;28;20175;-75
2022/07/16 04:17:55;;;;;;;0.93;0.50;;;;;;;15.08;78.67;100642.78;5070222;28;20175;-73
2022/07/16 04:20:20;;;;;;;0.60;0.60;;;;;;;15.06;78.83;100645.88;5069863;28;20697;-74
2022/07/16 04:22:46;;;;;;;0.10;0.10;;;;;;;15.06;78.54;100647.81;5070379;28;20202;-72
2022/07/16 04:25:13;;;;;;;4.37;0.87;;;;;;;15.07;78.32;100641.97;5070175;28;20166;-72
2022/07/16 04:27:41;;;;;;;0.50;0.30;;;;;;;15.06;77.74;100651.38;5070210;28;20170;-74
2022/07/16 04:30:08;;;;;;;0.13;0.13;;;;;;;15.06;77.81;100645.06;5070450;28;20203;-73
2022/07/16 04:32:34;;;;;;;0.13;0.13;;;;;;;15.06;77.38;100650.56;5070227;28;20196;-74
2022/07/16 04:35:00;;;;;;;0.67;0.67;;;;;;;15.06;77.00;100647.81;5070204;28;20175;-72
2022/07/16 04:37:25;;;;;;;0.20;0.20;;;;;;;15.07;77.18;100658.47;5070309;28;20175;-75
2022/07/16 04:39:51;;;;;;;0.27;0.27;;;;;;;15.10;76.66;100655.06;5070191;28;20175;-74
2022/07/16 04:42:17;;;;;;;0.60;0.60;;;;;;;15.12;76.75;100655.50;5069772;28;20170;-73
2022/07/16 04:44:42;;;;;;;0.17;0.17;;;;;;;15.10;76.82;100659.75;5070022;28;20195;-75
2022/07/16 04:47:08;;;;;;;0.30;0.20;;;;;;;15.17;76.67;100657.25;5069944;28;20171;-75
2022/07/16 04:49:33;;;;;;;0.27;0.10;;;;;;;15.20;76.65;100662.09;5069656;28;20170;-73
2022/07/16 04:51:58;;;;;;;0.13;0.10;;;;;;;15.23;76.67;100668.88;5070006;28;20689;-73
2022/07/16 04:54:24;;;;;;;0.30;0.30;;;;;;;15.22;76.88;100668.06;5070029;28;20367;-74
2022/07/16 04:56:49;;;;;;;0.20;0.20;;;;;;;15.23;77.98;100669.69;5069809;28;20228;-72
2022/07/16 04:59:14;;;;;;;0.50;0.50;;;;;;;15.22;78.86;100673.59;5068507;28;20634;-75
2022/07/16 05:01:40;;;;;;;0.00;0.00;;;;;;;15.19;79.33;100671.50;5073357;28;20178;-74
2022/07/16 05:04:05;;;;;;;0.00;0.00;;;;;;;15.16;80.04;100663.91;5073621;28;20614;-75
2022/07/16 05:06:30;;;;;;;0.20;0.20;;;;;;;15.14;80.17;100660.69;5073377;28;20206;-72
2022/07/16 05:08:56;;;;;;;0.40;0.40;;;;;;;15.11;80.79;100672.38;5073125;28;20171;-75
2022/07/16 05:11:22;;;;;;;0.57;0.57;;;;;;;15.08;81.48;100678.56;5073325;28;20606;-76
2022/07/16 05:13:48;;;;;;;0.40;0.40;;;;;;;15.03;82.55;100685.03;5073324;28;20186;-77
2022/07/16 05:16:14;;;;;;;0.37;0.37;;;;;;;14.97;83.51;100702.91;5073351;28;20658;-75
2022/07/16 05:18:39;;;;;;;0.00;0.00;;;;;;;14.94;83.45;100700.03;5072767;28;20178;-76
2022/07/16 05:21:04;;;;;;;0.60;0.60;;;;;;;14.88;84.92;100705.69;5073055;28;20182;-76
2022/07/16 05:23:30;;;;;;;0.63;0.63;;;;;;;14.78;85.90;100711.59;5073171;28;20206;-72
2022/07/16 05:25:55;;;;;;;0.90;0.90;;;;;;;14.65;88.18;100709.09;5073173;28;20186;-71
2022/07/16 05:28:20;;;;;;;0.10;0.10;;;;;;;14.53;90.69;100716.09;5072579;28;20647;-75
2022/07/16 05:30:46;;;;;;;0.00;0.00;;;;;;;14.45;93.53;100719.69;5073017;28;20621;-71
2022/07/16 05:33:11;;;;;;;0.87;0.87;;;;;;;14.33;96.60;100724.28;5073272;28;20682;-76
2022/07/16 05:35:36;;;;;;;0.70;0.70;;;;;;;14.15;99.81;100727.06;5073050;28;20277;-75
2022/07/16 05:38:02;;;;;;;0.00;0.00;;;;;;;14.01;100.00;100718.22;5072515;28;20166;-73
2022/07/16 05:40:27;;;;;;;0.03;0.03;;;;;;;13.94;100.00;100724.22;5072863;28;20558;-72
2022/07/16 05:42:52;;;;;;;0.50;0.47;;;;;;;13.85;100.00;100719.88;5072418;28;20210;-75
2022/07/16 05:45:18;;;;;;;0.57;0.50;;;;;;;13.77;100.00;100729.75;5073085;28;20246;-76
2022/07/16 05:47:43;;;;;;;0.30;0.23;;;;;;;13.73;100.00;100736.19;5072502;28;20174;-74
2022/07/16 05:50:09;;;;;;;0.37;0.30;;;;;;;13.74;100.00;100735.06;5072328;28;20556;-74
2022/07/16 05:52:36;;;;;;;0.10;0.10;;;;;;;13.71;100.00;100731.03;5072759;28;20252;-76
2022/07/16 05:55:01;;;;;;;0.30;0.30;;;;;;;13.66;100.00;100737.50;5072734;28;20198;-71
2022/07/16 05:57:27;;;;;;;0.20;0.20;;;;;;;13.62;100.00;100735.75;5072415;28;20178;-74
2022/07/16 05:59:52;;;;;;;0.67;0.47;;;;;;;13.59;100.00;100733.63;5072340;28;20171;-76
2022/07/16 06:02:17;;;;;;;0.10;0.10;;;;;;;13.58;100.00;100741.06;5071261;28;20790;-73
2022/07/16 06:04:43;;;;;;;1.80;1.60;;;;;;;13.53;100.00;100738.50;5072464;28;20634;-73
2022/07/16 06:07:09;;;;;;;0.00;0.00;;;;;;;13.56;100.00;100746.06;5072186;28;20534;-74
2022/07/16 06:09:34;;;;;;;1.20;1.10;;;;;;;13.53;100.00;100754.97;5072093;28;20582;-76
2022/07/16 06:11:59;;;;;;;0.57;0.57;;;;;;;13.56;100.00;100762.53;5072015;28;20198;-75
2022/07/16 06:14:25;;;;;;;2.63;1.23;;;;;;;13.55;100.00;100755.44;5072470;28;20178;-75
2022/07/16 06:16:50;;;;;;;1.07;1.07;;;;;;;13.62;100.00;100761.28;5072188;28;20174;-76
2022/07/16 06:19:16;;;;;;;1.20;1.10;;;;;;;13.65;100.00;100755.13;5070641;28;20178;-73
2022/07/16 06:21:42;;;;;;;4.57;0.73;;;;;;;13.76;100.00;100763.84;5072076;28;20190;-76
2022/07/16 06:24:07;;;;;;;0.60;0.57;;;;;;;13.87;100.00;100767.84;5070872;28;20174;-77
2022/07/16 06:26:33;;;;;;;0.33;0.33;;;;;;;13.98;100.00;100766.38;5071994;28;20206;-74
2022/07/16 06:28:58;;;;;;;1.50;1.40;;;;;;;14.07;100.00;100771.06;5070665;28;20174;-77
2022/07/16 06:31:24;;;;;;;0.87;0.80;;;;;;;14.18;100.00;100767.66;5071871;28;20327;-76
2022/07/16 06:33:49;;;;;;;1.17;0.53;;;;;;;14.28;100.00;100766.47;5070751;28;20274;-75
2022/07/16 06:36:15;;;;;;;0.40;0.40;;;;;;;14.38;100.00;100777.13;5071898;28;20198;-74
2022/07/16 06:38:40;;;;;;;0.53;0.53;;;;;;;14.45;100.00;100782.13;5071479;28;20174;-75
2022/07/16 06:41:05;;;;;;;0.80;0.80;;;;;;;14.50;100.00;100782.75;5070854;28;20673;-74
2022/07/16 06:43:30;;;;;;;0.40;0.40;;;;;;;14.53;100.00;100778.53;5071982;28;20178;-73
2022/07/16 06:45:56;;;;;;;0.87;0.87;;;;;;;14.59;100.00;100791.75;5072133;28;20245;-74
2022/07/16 06:48:22;;;;;;;0.20;0.20;;;;;;;14.72;100.00;100791.88;5071556;28;20270;-75
2022/07/16 06:50:48;;;;;;;0.20;0.20;;;;;;;14.76;100.00;100793.66;5071515;28;20263;-73
2022/07/16 06:53:13;;;;;;;0.20;0.20;;;;;;;14.88;100.00;100795.69;5071717;28;20611;-76
2022/07/16 06:55:38;;;;;;;0.77;0.70;;;;;;;14.88;100.00;100806.69;5071839;28;20619;-75
2022/07/16 06:58:04;;;;;;;0.53;0.53;;;;;;;14.84;100.00;100803.00;5070267;28;20310;-75
2022/07/16 07:00:29;;;;;;;0.00;0.00;;;;;;;14.93;100.00;100806.53;5071083;28;20170;-75
2022/07/16 07:02:55;;;;;;;0.00;0.00;;;;;;;15.27;100.00;100807.44;5070994;28;20171;-76
2022/07/16 07:05:20;;;;;;;0.60;0.60;;;;;;;15.34;100.00;100814.06;5070870;28;20292;-75
2022/07/16 07:07:45;;;;;;;0.20;0.20;;;;;;;15.39;100.00;100813.84;5070526;28;20220;-72
2022/07/16 07:10:11;;;;;;;0.37;0.37;;;;;;;15.26;98.34;100805.84;5070641;28;20432;-74
2022/07/16 07:12:36;;;;;;;0.20;0.20;;;;;;;15.37;97.71;100820.81;5071063;28;20255;-75
2022/07/16 07:15:03;;;;;;;0.20;0.20;;;;;;;15.51;96.56;100815.06;5070641;28;20185;-74
2022/07/16 07:17:29;;;;;;;0.30;0.30;;;;;;;15.73;96.71;100820.25;5070489;28;20622;-76
2022/07/16 07:19:54;;;;;;;0.50;0.50;;;;;;;15.82;93.58;100812.72;5070290;28;20179;-76
2022/07/16 07:22:19;;;;;;;0.40;0.40;;;;;;;15.96;93.43;100812.44;5068802;28;20175;-74
2022/07/16 07:24:45;;;;;;;0.60;0.60;;;;;;;15.81;91.62;100827.66;5070500;28;20504;-75
2022/07/16 07:27:10;;;;;;;0.27;0.27;;;;;;;15.65;92.30;100823.91;5068809;28;20183;-74
2022/07/16 07:29:36;;;;;;;0.00;0.00;;;;;;;15.71;93.78;100828.06;5069734;28;20194;-73
2022/07/16 07:32:03;;;;;;;0.60;0.60;;;;;;;15.75;92.65;100835.28;5070750;28;20561;-73
2022/07/16 07:34:28;;;;;;;0.77;0.77;;;;;;;15.80;91.22;100831.56;5070950;28;20184;-74
2022/07/16 07:36:53;;;;;;;0.10;0.10;;;;;;;15.93;90.17;100829.66;5070795;28;20265;-76
2022/07/16 07:39:19;;;;;;;0.50;0.50;;;;;;;16.08;89.55;100837.31;5070644;28;20202;-74
2022/07/16 07:41:44;;;;;;;0.50;0.50;;;;;;;16.19;87.05;100837.66;5070289;28;20179;-75
2022/07/16 07:44:10;;;;;;;0.10;0.10;;;;;;;16.20;85.32;100840.13;5070978;28;20189;-75
2022/07/16 07:46:36;;;;;;;0.13;0.13;;;;;;;16.33;85.35;100840.94;5070596;28;20546;-74
2022/07/16 07:49:02;;;;;;;0.20;0.20;;;;;;;16.22;83.41;100850.78;5070708;28;20186;-73
2022/07/16 07:51:27;;;;;;;0.90;0.50;;;;;;;16.13;81.89;100845.34;5071017;28;20553;-76
2022/07/16 07:53:52;;;;;;;0.30;0.30;;;;;;;16.22;81.46;100848.84;5070849;28;20534;-73
2022/07/16 07:56:18;;;;;;;0.00;0.00;;;;;;;16.39;81.98;100847.84;5070751;28;20182;-76
2022/07/16 07:58:43;;;;;;;0.10;0.10;;;;;;;16.64;79.45;100848.72;5070787;28;20636;-76
2022/07/16 08:01:09;;;;;;;0.47;0.47;;;;;;;16.85;79.55;100854.19;5070575;28;20184;-75
2022/07/16 08:03:34;;;;;;;0.30;0.30;;;;;;;17.04;77.93;100853.59;5070943;28;20538;-74
2022/07/16 08:05:59;;;;;;;0.30;0.30;;;;;;;17.06;76.85;100856.81;5070867;28;20566;-74
2022/07/16 08:08:25;;;;;;;0.73;0.73;;;;;;;17.14;77.37;100853.16;5069074;28;20178;-73
2022/07/16 08:10:51;;;;;;;1.17;0.77;;;;;;;17.32;74.36;100848.19;5070705;28;20552;-72
2022/07/16 08:13:17;;;;;;;0.10;0.10;;;;;;;17.33;74.81;100853.34;5070770;28;20229;-74
2022/07/16 08:15:43;;;;;;;0.10;0.10;;;;;;;17.33;74.90;100853.34;5070869;28;20167;-75
2022/07/16 08:18:09;;;;;;;0.27;0.17;;;;;;;17.56;75.70;100870.25;5070604;28;20181;-75
2022/07/16 08:20:34;;;;;;;0.50;0.50;;;;;;;17.66;73.91;100867.03;5070743;28;20171;-73
2022/07/16 08:22:59;;;;;;;0.40;0.40;;;;;;;17.40;71.86;100858.31;5070717;28;20182;-74
2022/07/16 08:28:09;;;;;;;0.13;0.13;;;;;;;17.22;72.88;100869.63;5070417;28;20189;-73
2022/07/16 08:30:34;;;;;;;0.13;0.13;;;;;;;17.35;73.06;100864.88;5070462;28;20199;-73
2022/07/16 08:33:00;;;;;;;0.10;0.10;;;;;;;17.29;73.23;100869.03;5070786;28;20185;-73
2022/07/16 08:35:25;;;;;;;0.30;0.30;;;;;;;17.31;74.03;100871.44;5071503;28;20183;-74
2022/07/16 08:37:50;;;;;;;4.03;1.23;;;;;;;17.51;72.99;100871.31;5073576;28;20183;-71
2022/07/16 08:40:19;;;;;;;1.00;1.00;;;;;;;17.83;72.67;100874.28;5073835;28;20179;-72
2022/07/16 08:42:45;;;;;;;0.00;0.00;;;;;;;17.73;71.18;100880.28;5072677;28;20509;-73
2022/07/16 08:45:13;;;;;;;0.77;0.73;;;;;;;17.91;70.55;100872.50;5074013;28;20405;-73
2022/07/16 08:47:39;;;;;;;0.27;0.23;;;;;;;18.02;69.24;100881.91;5073689;28;20174;-75
2022/07/16 08:50:13;;;;;;;3.70;0.43;;;;;;;17.97;68.48;100879.41;5072969;28;20647;-73
2022/07/16 08:52:47;;;;;;;1.07;0.40;;;;;;;18.01;68.83;100883.06;5070577;28;20602;-74
2022/07/16 08:55:13;;;;;;;0.20;0.20;;;;;;;18.12;68.35;100887.78;5086693;28;20272;-73
2022/07/16 08:57:39;;;;;;;0.00;0.00;;;;;;;18.21;67.40;100884.84;5072172;28;20383;-73
2022/07/16 09:00:09;;;;;;;0.27;0.27;;;;;;;18.47;67.51;100889.09;5073103;28;20335;-73
2022/07/16 09:02:35;;;;;;;0.10;0.10;;;;;;;18.35;66.28;100884.44;5073657;28;20174;-74
2022/07/16 09:05:00;;;;;;;4.47;0.43;;;;;;;18.19;66.71;100892.69;5071712;28;20186;-74
2022/07/16 09:07:26;;;;;;;7.73;0.23;;;;;;;18.14;66.84;100885.44;5073547;28;20177;-73
2022/07/16 09:09:51;;;;;;;0.20;0.20;;;;;;;18.18;67.36;100899.38;5073418;28;20181;-75
2022/07/16 09:12:35;;;;;;;0.10;0.10;;;;;;;18.19;66.14;100895.44;5075015;28;20202;-75
2022/07/16 09:15:33;;;;;;;0.10;0.10;;;;;;;18.27;66.21;100899.22;5075421;28;20175;-75
2022/07/16 09:18:15;;;;;;;0.57;0.57;;;;;;;18.22;65.70;100911.34;5070635;28;20365;-76
2022/07/16 09:20:50;;;;;;;1.13;0.33;;;;;;;18.08;65.47;100910.91;5053219;28;20637;-74
2022/07/16 09:23:20;;;;;;;0.10;0.10;;;;;;;18.07;64.57;100912.06;5053569;28;20196;-74
2022/07/16 09:25:54;;;;;;;0.00;0.00;;;;;;;18.29;65.24;100913.50;5053347;28;20229;-75
2022/07/16 09:28:21;;;;;;;0.10;0.10;;;;;;;18.59;64.09;100913.94;5052897;28;20178;-72
2022/07/16 09:30:47;;;;;;;1.07;1.03;;;;;;;18.64;63.25;100916.47;5052939;28;20244;-75
2022/07/16 09:33:15;;;;;;;0.20;0.20;;;;;;;18.65;63.62;100912.56;5053224;28;20260;-75
2022/07/16 09:35:42;;;;;;;0.30;0.30;;;;;;;18.46;65.64;100915.97;5052651;28;20170;-75
2022/07/16 09:38:09;;;;;;;0.63;0.63;;;;;;;18.48;66.48;100915.63;5070840;28;20650;-74
2022/07/16 09:40:40;;;;;;;1.10;0.30;;;;;;;18.82;63.85;100915.00;5064803;28;20265;-76
2022/07/16 09:43:11;;;;;;;0.00;0.00;;;;;;;19.15;62.97;100917.44;5072848;28;20185;-72
2022/07/16 09:45:39;;;;;;;1.50;0.10;;;;;;;19.05;61.77;100917.16;5071227;28;20175;-75
2022/07/16 09:48:24;;;;;;;0.10;0.10;;;;;;;19.05;61.33;100922.69;5058995;28;20179;-75
2022/07/16 09:50:51;;;;;;;0.20;0.20;;;;;;;18.71;61.46;100930.53;5052481;28;20214;-74
2022/07/16 09:53:21;;;;;;;0.07;0.03;;;;;;;18.61;62.86;100942.88;5063891;28;20186;-74
2022/07/16 09:56:03;;;;;;;0.20;0.10;;;;;;;18.76;63.14;100930.25;5072550;28;20166;-74
2022/07/16 09:58:29;;;;;;;0.20;0.17;;;;;;;19.00;60.86;100932.88;5052142;28;20171;-75
2022/07/16 10:00:56;;;;;;;0.33;0.33;;;;;;;19.22;59.10;100925.09;5052401;28;20172;-77
2022/07/16 10:03:21;;;;;;;0.07;0.07;;;;;;;19.43;59.13;100924.84;5052448;28;20228;-75
2022/07/16 10:05:47;;;;;;;0.00;0.00;;;;;;;19.57;56.15;100933.53;5052327;28;20176;-75
2022/07/16 10:08:14;;;;;;;6.40;0.20;;;;;;;19.71;55.90;100928.31;5051970;28;20182;-76
2022/07/16 10:10:39;;;;;;;0.03;0.03;;;;;;;19.82;56.34;100923.00;5052061;28;20242;-74
2022/07/16 10:13:06;;;;;;;0.00;0.00;;;;;;;19.57;57.27;100939.06;5052269;28;20206;-75
2022/07/16 10:15:32;;;;;;;0.00;0.00;;;;;;;19.17;58.70;100950.31;5052371;28;20183;-72
2022/07/16 10:17:58;;;;;;;0.03;0.03;;;;;;;19.05;58.97;100958.69;5052026;28;20179;-75
2022/07/16 10:20:23;;;;;;;0.33;0.33;;;;;;;18.72;59.25;100963.38;5052030;28;20172;-76
2022/07/16 10:22:50;;;;;;;2.00;0.30;;;;;;;19.07;59.16;100965.50;5052179;28;20235;-75
2022/07/16 10:25:19;;;;;;;2.30;0.20;;;;;;;19.38;58.04;100961.13;5052039;28;20698;-75
2022/07/16 10:27:45;;;;;;;0.30;0.10;;;;;;;19.54;57.00;100976.63;5051892;28;20171;-75
2022/07/16 10:30:16;;;;;;;0.00;0.00;;;;;;;19.22;56.46;100969.44;5051611;28;20182;-76
2022/07/16 10:33:00;;;;;;;0.13;0.13;;;;;;;19.68;56.12;100958.72;5052006;28;20611;-73
2022/07/16 10:35:34;;;;;;;0.00;0.00;;;;;;;20.00;54.95;100968.56;5052060;28;20171;-73
2022/07/16 10:38:08;;;;;;;0.00;0.00;;;;;;;20.21;54.62;100971.81;5051523;28;20253;-75
2022/07/16 10:40:36;;;;;;;0.73;0.73;;;;;;;20.06;52.96;100964.34;5051218;28;20201;-74
2022/07/16 10:43:21;;;;;;;0.30;0.13;;;;;;;20.25;53.31;100963.53;5071156;28;20196;-75
2022/07/16 10:46:01;;;;;;;0.30;0.13;;;;;;;19.52;54.18;100980.88;5065651;28;20195;-73
2022/07/16 10:48:50;;;;;;;0.10;0.10;;;;;;;18.71;56.02;100988.66;5070961;28;20200;-76
2022/07/16 10:51:20;;;;;;;0.10;0.00;;;;;;;19.01;56.84;100984.34;5069237;28;20213;-76
2022/07/16 10:53:57;;;;;;;0.00;0.00;;;;;;;19.49;55.67;100985.16;5071464;28;20247;-76
2022/07/16 10:56:44;;;;;;;0.00;0.00;;;;;;;19.96;53.42;100992.63;5071534;28;20190;-74
2022/07/16 10:59:12;;;;;;;0.10;0.10;;;;;;;19.90;51.14;100992.13;5067682;28;20178;-77
2022/07/16 11:01:39;;;;;;;0.20;0.20;;;;;;;19.75;50.81;101001.28;5071004;28;20536;-75
2022/07/16 11:04:07;;;;;;;0.93;0.20;;;;;;;20.15;51.53;101008.53;5071390;28;20181;-76
2022/07/16 11:06:33;;;;;;;0.10;0.10;;;;;;;20.36;50.53;101005.41;5071463;28;20271;-78
2022/07/16 11:09:00;;;;;;;0.20;0.10;;;;;;;20.46;49.79;101010.41;5071250;28;20204;-76
2022/07/16 11:11:38;;;;;;;1.97;0.23;;;;;;;20.02;48.34;101016.16;5071237;28;20214;-76
2022/07/16 11:14:05;;;;;;;0.00;0.00;;;;;;;19.85;49.85;101014.59;5071296;28;20178;-76
2022/07/16 11:16:31;;;;;;;0.00;0.00;;;;;;;19.83;48.62;101003.06;5071523;28;20261;-73
2022/07/16 11:19:01;;;;;;;0.30;0.30;;;;;;;19.69;48.89;101015.78;5069992;28;20578;-78
2022/07/16 11:21:27;;;;;;;0.93;0.67;;;;;;;19.74;48.64;101018.28;5071142;28;20183;-76
2022/07/16 11:23:55;;;;;;;0.20;0.10;;;;;;;19.84;46.88;101024.09;5071135;28;20205;-75
2022/07/16 11:26:22;;;;;;;5.60;0.93;;;;;;;19.96;46.62;101031.47;5071448;28;20174;-77